Faringdon, United Kingdom
Current Conditions -  °F | °C
As of 3:50 AM on Friday 19 Dec 2014 (Local Time) from EGVN Reporting Station
Light Rain Light Rain  
Wind Chill: 54°   Ceiling: 1200
Heat Index: 54°   Visibility: 6mi
Dew Point: 52°   Wind: 13mph
Humidity: 94%   Direction: 250°WSW
Pressure: 29.74"   Gusts: NA
Location:  51.66°N, 1.59°W
Report Text: EGVN 190350Z 25011KT 9999 -RA SCT008 OVC012 12/11 Q1007 TEMPO 4000 RA
Loading
Personal Weather Stations






























Interactive Weather Map New forecast layout! Learn more

10-Day Weather Forecast

Advertisements
Track Severe Weather on mobile